Time;durP1;ratioP1;P1;durP2;ratioP2;P2;SDS_P1;SDS_P2;PMS_P1;PMS_P2;Temp;Humidity;BMP_temperature;BMP_pressure;BME280_temperature;BME280_humidity;BME280_pressure;Samples;Min_cycle;Max_cycle;Signal;HPM_P1;HPM_P2
2022/08/17 00:00:42;;;;;;;8.00;7.30;;;24.20;92.30;;;;;;5045730;28;20033;-34
2022/08/17 00:03:25;;;;;;;7.57;6.90;;;24.10;92.30;;;;;;5008965;28;1024008;-34
2022/08/17 00:05:55;;;;;;;7.85;7.07;;;24.10;92.20;;;;;;5046624;28;20104;-34
2022/08/17 00:08:28;;;;;;;8.65;7.85;;;24.10;92.20;;;;;;5046646;28;20151;-34
2022/08/17 00:10:54;;;;;;;7.88;7.07;;;24.10;92.20;;;;;;5046189;28;20484;-34
2022/08/17 00:13:36;;;;;;;9.25;7.20;;;24.10;92.20;;;;;;5046698;28;20049;-33
2022/08/17 00:16:06;;;;;;;6.90;6.30;;;24.10;92.20;;;;;;5045532;28;20056;-33
2022/08/17 00:18:32;;;;;;;8.32;7.60;;;24.10;92.20;;;;;;5042754;28;20025;-34
2022/08/17 00:20:59;;;;;;;8.57;7.75;;;24.10;92.20;;;;;;5046833;28;20033;-33
2022/08/17 00:23:25;;;;;;;8.35;7.55;;;24.10;92.20;;;;;;5045398;28;20025;-33
2022/08/17 00:25:52;;;;;;;8.20;7.35;;;24.10;92.20;;;;;;5046358;28;20025;-33
2022/08/17 00:28:17;;;;;;;7.22;6.57;;;24.10;92.20;;;;;;5046347;28;20482;-33
2022/08/17 00:30:45;;;;;;;9.20;7.22;;;24.10;92.10;;;;;;5045636;28;20029;-33
2022/08/17 00:33:14;;;;;;;7.72;6.93;;;24.10;92.10;;;;;;5045780;28;20100;-34
2022/08/17 00:35:40;;;;;;;8.05;7.45;;;24.10;92.10;;;;;;5045876;28;20087;-34
2022/08/17 00:38:08;;;;;;;8.30;7.60;;;24.10;92.20;;;;;;5045197;28;20061;-34
2022/08/17 00:40:40;;;;;;;8.07;7.28;;;24.10;92.20;;;;;;5045862;28;20064;-33
2022/08/17 00:43:14;;;;;;;7.22;6.63;;;24.10;92.20;;;;;;5045294;28;20037;-34
2022/08/17 00:45:40;;;;;;;7.00;6.38;;;24.10;92.50;;;;;;5045595;28;20594;-35
2022/08/17 00:48:08;;;;;;;7.07;6.45;;;24.00;92.20;;;;;;5045842;28;20035;-33
2022/08/17 00:50:34;;;;;;;8.13;7.32;;;24.00;92.30;;;;;;5045501;28;20095;-33
2022/08/17 00:53:01;;;;;;;8.77;7.78;;;24.00;92.30;;;;;;5045037;28;20044;-33
2022/08/17 00:55:27;;;;;;;7.95;6.97;;;24.00;92.40;;;;;;5045439;28;20032;-35
2022/08/17 00:57:57;;;;;;;7.43;6.82;;;24.00;92.40;;;;;;5045033;28;20017;-34
2022/08/17 01:00:27;;;;;;;7.72;6.93;;;24.00;92.50;;;;;;5035945;28;20029;-34
2022/08/17 01:03:00;;;;;;;7.88;7.07;;;24.00;92.50;;;;;;5043996;28;20064;-34
2022/08/17 01:05:29;;;;;;;7.35;6.65;;;24.00;92.50;;;;;;5037583;28;20021;-34
2022/08/17 01:07:56;;;;;;;9.10;7.53;;;24.00;92.50;;;;;;5045413;28;20495;-33
2022/08/17 01:10:38;;;;;;;9.02;7.70;;;24.00;92.50;;;;;;5045878;28;20177;-33
2022/08/17 01:13:04;;;;;;;5.82;5.35;;;24.00;92.50;;;;;;5044657;28;20067;-33
2022/08/17 01:15:33;;;;;;;7.75;7.05;;;24.00;92.50;;;;;;5045438;28;20017;-33
2022/08/17 01:17:59;;;;;;;7.18;6.47;;;24.00;92.50;;;;;;5045684;28;20072;-33
2022/08/17 01:20:25;;;;;;;7.30;6.70;;;24.00;92.50;;;;;;5044685;28;20498;-33
2022/08/17 01:22:51;;;;;;;7.88;7.20;;;24.00;92.50;;;;;;5045326;28;20050;-34
2022/08/17 01:25:18;;;;;;;7.57;6.85;;;23.90;92.50;;;;;;5045728;28;20033;-33
2022/08/17 01:27:44;;;;;;;6.88;6.18;;;24.00;92.50;;;;;;5044685;28;20158;-33
2022/08/17 01:30:11;;;;;;;7.95;7.18;;;23.90;92.50;;;;;;5045196;28;20111;-32
2022/08/17 01:32:37;;;;;;;8.48;7.68;;;23.90;92.50;;;;;;5045573;28;20025;-34
2022/08/17 01:35:03;;;;;;;8.35;7.50;;;23.90;92.50;;;;;;5044046;28;20090;-33
2022/08/17 01:37:36;;;;;;;7.85;6.53;;;23.90;92.50;;;;;;5045013;28;20488;-33
2022/08/17 01:40:13;;;;;;;6.30;5.80;;;23.90;92.50;;;;;;5044521;28;20420;-33
2022/08/17 01:42:44;;;;;;;7.85;7.13;;;23.90;92.80;;;;;;5044327;28;20032;-32
2022/08/17 01:45:18;;;;;;;7.97;7.03;;;23.90;92.40;;;;;;5045118;28;20021;-33
2022/08/17 01:47:44;;;;;;;7.38;6.68;;;23.90;92.40;;;;;;5044586;28;20412;-35
2022/08/17 01:50:14;;;;;;;7.53;6.80;;;23.90;92.40;;;;;;5045192;28;20025;-34
2022/08/17 01:52:42;;;;;;;7.10;6.50;;;23.90;92.40;;;;;;5045294;28;20044;-33
2022/08/17 01:55:08;;;;;;;6.00;5.50;;;23.90;92.40;;;;;;5044018;28;20473;-32
2022/08/17 01:57:34;;;;;;;6.97;5.90;;;23.90;92.40;;;;;;5044993;28;20025;-35
2022/08/17 02:00:01;;;;;;;8.80;7.57;;;23.90;92.40;;;;;;5044513;28;20032;-34
2022/08/17 02:02:26;;;;;;;7.15;6.55;;;23.90;92.40;;;;;;5044607;28;20079;-35
2022/08/17 02:04:52;;;;;;;7.75;7.05;;;23.80;92.40;;;;;;5044425;28;20044;-34
2022/08/17 02:07:17;;;;;;;7.28;6.55;;;23.80;92.40;;;;;;5044815;28;20017;-34
2022/08/17 02:09:43;;;;;;;6.65;6.05;;;23.80;92.50;;;;;;5044302;28;20025;-33
2022/08/17 02:12:09;;;;;;;6.75;6.15;;;23.70;92.50;;;;;;5045199;28;20048;-33
2022/08/17 02:14:34;;;;;;;8.68;6.97;;;23.70;92.50;;;;;;5044520;28;20052;-34
2022/08/17 02:17:00;;;;;;;9.93;8.93;;;23.70;92.60;;;;;;5044265;28;20033;-35
2022/08/17 02:19:26;;;;;;;8.70;7.88;;;23.60;92.60;;;;;;5044706;28;20028;-34
2022/08/17 02:21:53;;;;;;;9.48;8.68;;;23.60;92.70;;;;;;5044603;28;20029;-33
2022/08/17 02:24:28;;;;;;;10.73;9.60;;;23.50;92.80;;;;;;5044578;28;20108;-35
2022/08/17 02:26:53;;;;;;;11.07;9.98;;;23.50;93.00;;;;;;5044359;28;20028;-34
2022/08/17 02:29:19;;;;;;;11.98;10.77;;;23.40;93.00;;;;;;5044214;28;20368;-34
2022/08/17 02:31:45;;;;;;;10.48;9.48;;;23.30;93.10;;;;;;5043772;28;20055;-34
2022/08/17 02:34:11;;;;;;;11.27;10.20;;;23.20;93.20;;;;;;5044536;28;20040;-34
2022/08/17 02:36:37;;;;;;;12.38;10.77;;;23.20;93.60;;;;;;5043397;28;20431;-34
2022/08/17 02:39:06;;;;;;;13.50;9.63;;;23.20;93.40;;;;;;5044852;28;20132;-34
2022/08/17 02:41:31;;;;;;;13.35;11.95;;;23.20;93.50;;;;;;5044540;28;20016;-33
2022/08/17 02:43:57;;;;;;;11.18;10.20;;;23.10;93.50;;;;;;5043422;28;20291;-33
2022/08/17 02:46:23;;;;;;;10.60;8.80;;;23.10;93.60;;;;;;5045047;28;20601;-34
2022/08/17 02:48:48;;;;;;;10.88;9.88;;;23.00;93.60;;;;;;5044114;28;20025;-34
2022/08/17 02:51:14;;;;;;;13.02;11.57;;;23.00;93.70;;;;;;5043942;28;20098;-33
2022/08/17 02:53:39;;;;;;;11.85;10.75;;;23.00;93.80;;;;;;5044471;28;20139;-33
2022/08/17 02:56:05;;;;;;;9.20;8.40;;;22.90;93.80;;;;;;5047023;28;20155;-34
2022/08/17 02:58:31;;;;;;;11.48;10.38;;;22.90;93.80;;;;;;5047300;28;20028;-34
2022/08/17 03:00:56;;;;;;;10.48;9.55;;;22.90;93.80;;;;;;5048989;28;20021;-33
2022/08/17 03:03:22;;;;;;;10.05;9.15;;;22.90;93.90;;;;;;5047654;28;20052;-33
2022/08/17 03:05:50;;;;;;;9.63;8.82;;;22.90;93.90;;;;;;5046881;28;20029;-34
2022/08/17 03:08:16;;;;;;;7.72;7.13;;;22.90;93.90;;;;;;5047846;28;20055;-33
2022/08/17 03:10:43;;;;;;;9.20;8.05;;;22.90;93.90;;;;;;5047314;28;20021;-33
2022/08/17 03:13:11;;;;;;;9.95;9.13;;;22.90;93.80;;;;;;5046848;28;20044;-33
2022/08/17 03:15:38;;;;;;;8.38;7.65;;;22.90;93.80;;;;;;5047715;28;20061;-33
2022/08/17 03:18:05;;;;;;;10.38;9.48;;;22.90;93.80;;;;;;5047224;28;20025;-33
2022/08/17 03:20:32;;;;;;;12.35;11.13;;;22.90;93.80;;;;;;5046476;28;20110;-32
2022/08/17 03:22:59;;;;;;;10.55;9.55;;;22.90;93.90;;;;;;5047738;28;20559;-35
2022/08/17 03:25:28;;;;;;;11.30;10.13;;;22.90;93.90;;;;;;5047148;28;20028;-34
2022/08/17 03:27:54;;;;;;;10.40;9.45;;;22.90;94.00;;;;;;5047529;28;20396;-34
2022/08/17 03:30:21;;;;;;;10.15;9.23;;;22.90;94.00;;;;;;5047947;28;20017;-41
2022/08/17 03:32:49;;;;;;;10.48;9.57;;;22.80;94.40;;;;;;5045910;28;20029;-34
2022/08/17 03:35:18;;;;;;;10.18;9.18;;;22.80;94.20;;;;;;5047328;28;20373;-34
2022/08/17 03:37:43;;;;;;;11.30;10.20;;;22.80;94.20;;;;;;5046790;28;20488;-34
2022/08/17 03:40:10;;;;;;;11.07;10.05;;;22.80;94.20;;;;;;5046842;28;20198;-34
2022/08/17 03:42:37;;;;;;;9.48;8.68;;;22.80;94.30;;;;;;5047380;28;20104;-34
2022/08/17 03:45:05;;;;;;;10.50;9.45;;;22.80;94.30;;;;;;5047268;28;20473;-34
2022/08/17 03:56:41;;;;;;;10.75;9.75;;;22.80;94.30;;;;;;5047724;28;20128;-34
2022/08/17 03:58:38;;;;;;;9.43;8.50;;;22.90;94.40;;;;;;5046532;28;20048;-34
2022/08/17 04:01:05;;;;;;;9.57;8.68;;;22.90;94.40;;;;;;5046279;28;20021;-35
2022/08/17 04:03:31;;;;;;;8.70;7.80;;;22.90;94.40;;;;;;5046713;28;20073;-34
2022/08/17 04:05:56;;;;;;;10.38;9.27;;;22.90;94.40;;;;;;5045651;28;20021;-33
2022/08/17 04:08:21;;;;;;;10.23;9.23;;;23.00;94.40;;;;;;5046201;28;20032;-33
2022/08/17 04:10:47;;;;;;;9.25;8.35;;;23.00;94.40;;;;;;5045804;28;20013;-34
2022/08/17 04:13:13;;;;;;;11.57;9.68;;;23.00;94.40;;;;;;5046568;28;20488;-33
2022/08/17 04:15:39;;;;;;;9.10;8.25;;;23.00;94.40;;;;;;5045928;28;20029;-35
2022/08/17 04:18:04;;;;;;;8.02;7.32;;;23.00;94.40;;;;;;5046472;28;20025;-34
2022/08/17 04:20:30;;;;;;;9.18;8.35;;;23.10;94.30;;;;;;5046676;28;20032;-33
2022/08/17 04:23:01;;;;;;;7.70;7.07;;;23.10;94.30;;;;;;5045455;28;20048;-34
2022/08/17 04:25:29;;;;;;;9.63;8.82;;;23.00;94.30;;;;;;5046027;28;20028;-33
2022/08/17 04:27:55;;;;;;;9.63;8.82;;;23.00;94.30;;;;;;5046572;28;20099;-35
2022/08/17 04:30:21;;;;;;;9.60;8.75;;;23.00;94.30;;;;;;5045290;28;20029;-34
2022/08/17 04:33:01;;;;;;;10.60;9.60;;;22.90;94.30;;;;;;5045705;28;20033;-34
2022/08/17 04:35:30;;;;;;;10.25;9.25;;;22.90;94.30;;;;;;5046127;28;20009;-34
2022/08/17 04:37:56;;;;;;;10.70;9.70;;;22.90;94.30;;;;;;5045606;28;20146;-34
2022/08/17 04:43:12;;;;;;;10.90;9.80;;;22.90;94.40;;;;;;5046149;28;20499;-32
2022/08/17 04:45:40;;;;;;;9.13;8.07;;;22.80;94.30;;;;;;5045517;28;20013;-33
2022/08/17 04:48:05;;;;;;;8.90;8.10;;;22.80;94.30;;;;;;5045659;28;20116;-34
2022/08/17 04:50:36;;;;;;;9.73;8.85;;;22.80;94.20;;;;;;5044620;28;20444;-33
2022/08/17 04:53:02;;;;;;;8.32;7.60;;;22.90;94.20;;;;;;5045646;28;20036;-33
2022/08/17 04:55:27;;;;;;;8.48;7.57;;;22.90;94.20;;;;;;5045445;28;20027;-34
2022/08/17 04:57:53;;;;;;;10.07;8.07;;;22.90;94.10;;;;;;5044573;28;20036;-34
2022/08/17 05:00:19;;;;;;;8.43;7.63;;;22.90;94.10;;;;;;5046640;28;20055;-33
2022/08/17 05:02:47;;;;;;;8.23;7.53;;;23.00;94.00;;;;;;5045268;28;20044;-34
2022/08/17 05:05:18;;;;;;;8.02;7.30;;;23.00;94.00;;;;;;5044981;28;20064;-35
2022/08/17 05:07:44;;;;;;;9.45;8.63;;;23.00;93.90;;;;;;5045137;28;20048;-35
2022/08/17 05:10:09;;;;;;;11.88;10.85;;;22.90;94.00;;;;;;5045509;28;20033;-35
2022/08/17 05:12:35;;;;;;;14.80;11.45;;;22.70;94.20;;;;;;5044532;28;20033;-34
2022/08/17 05:15:00;;;;;;;12.52;11.32;;;22.50;94.50;;;;;;5046108;28;20025;-35
2022/08/17 05:17:26;;;;;;;11.45;10.27;;;22.40;94.70;;;;;;5044949;28;20032;-35
2022/08/17 05:19:51;;;;;;;11.55;10.45;;;22.40;94.80;;;;;;5044518;28;20029;-33
2022/08/17 05:22:17;;;;;;;11.25;10.15;;;22.30;94.80;;;;;;5045513;28;20046;-33
2022/08/17 05:24:42;;;;;;;9.85;9.05;;;22.40;94.70;;;;;;5045088;28;20037;-34
2022/08/17 05:27:08;;;;;;;9.35;8.45;;;22.40;94.70;;;;;;5044464;28;20032;-33
2022/08/17 05:29:33;;;;;;;9.50;8.60;;;22.50;94.60;;;;;;5045313;28;20446;-33
2022/08/17 05:32:08;;;;;;;9.30;8.50;;;22.60;94.50;;;;;;5044550;28;20120;-34
2022/08/17 05:34:35;;;;;;;10.35;9.45;;;22.60;94.40;;;;;;5036429;28;20023;-34
2022/08/17 05:37:01;;;;;;;9.18;8.27;;;22.60;94.40;;;;;;5046588;28;20480;-34
2022/08/17 05:39:26;;;;;;;11.05;9.93;;;22.60;94.40;;;;;;5042216;28;20070;-34
2022/08/17 05:41:52;;;;;;;9.25;8.38;;;22.60;94.40;;;;;;5043641;28;20453;-34
2022/08/17 05:44:17;;;;;;;9.27;8.48;;;22.60;94.40;;;;;;5045070;28;20323;-34
2022/08/17 05:46:48;;;;;;;9.82;8.88;;;22.60;94.30;;;;;;5043172;28;20016;-35
2022/08/17 05:49:16;;;;;;;10.63;9.55;;;22.60;94.30;;;;;;5043843;28;20489;-34
2022/08/17 05:52:14;;;;;;;8.85;7.70;;;22.60;94.30;;;;;;5044323;28;20086;-34
2022/08/17 05:55:10;;;;;;;8.77;7.97;;;22.60;94.30;;;;;;5043098;28;20309;-34
2022/08/17 05:58:02;;;;;;;8.30;7.60;;;22.70;94.30;;;;;;5042912;28;20450;-34
2022/08/17 06:00:44;;;;;;;9.93;9.00;;;22.70;94.30;;;;;;5032237;28;20527;-35
2022/08/17 06:03:45;;;;;;;9.10;8.20;;;22.70;94.30;;;;;;5043751;28;20029;-34
2022/08/17 06:06:29;;;;;;;6.97;6.38;;;22.80;94.20;;;;;;5021100;28;20469;-34
2022/08/17 06:09:15;;;;;;;8.63;7.82;;;22.80;94.20;;;;;;5040580;28;20041;-34
2022/08/17 06:11:50;;;;;;;10.35;8.93;;;22.80;94.20;;;;;;5038939;28;20055;-34
2022/08/17 06:14:28;;;;;;;10.90;9.82;;;22.80;94.20;;;;;;5043621;28;20360;-34
2022/08/17 06:17:03;;;;;;;8.88;8.07;;;22.80;94.20;;;;;;5043859;28;20033;-36
2022/08/17 06:19:38;;;;;;;8.52;7.68;;;22.80;94.20;;;;;;5042978;28;20025;-34
2022/08/17 06:22:05;;;;;;;8.20;7.50;;;22.90;94.20;;;;;;5042340;28;20033;-34
2022/08/17 06:24:44;;;;;;;9.88;8.85;;;22.90;94.10;;;;;;5043500;28;20066;-33
2022/08/17 06:27:29;;;;;;;11.00;9.80;;;22.80;94.20;;;;;;5043428;28;20443;-34
2022/08/17 06:30:16;;;;;;;10.18;9.18;;;22.90;94.30;;;;;;5043415;28;20086;-33
2022/08/17 06:32:44;;;;;;;10.35;9.35;;;22.80;94.30;;;;;;5027445;28;20100;-34
2022/08/17 06:35:15;;;;;;;11.15;10.10;;;22.80;94.30;;;;;;5042231;28;20086;-33
2022/08/17 06:38:19;;;;;;;13.73;11.25;;;22.80;94.50;;;;;;5047439;28;20029;-34
2022/08/17 06:41:15;;;;;;;10.73;9.63;;;22.70;94.50;;;;;;5034485;28;20044;-35
2022/08/17 06:43:57;;;;;;;13.10;11.70;;;22.70;94.60;;;;;;5047044;28;20435;-33
2022/08/17 06:46:27;;;;;;;13.05;11.75;;;22.60;94.90;;;;;;5047921;28;20016;-34
2022/08/17 06:49:10;;;;;;;14.25;12.88;;;22.60;95.10;;;;;;5046996;28;20524;-33
2022/08/17 06:52:10;;;;;;;12.65;11.55;;;22.50;95.40;;;;;;5043527;28;20446;-35
2022/08/17 06:55:02;;;;;;;14.23;12.80;;;22.40;95.60;;;;;;5047890;28;20025;-34
2022/08/17 06:57:30;;;;;;;10.30;9.40;;;22.50;95.80;;;;;;5037810;28;20070;-33
2022/08/17 07:00:01;;;;;;;11.32;10.23;;;22.40;95.80;;;;;;5047214;28;20064;-34
2022/08/17 07:02:54;;;;;;;11.50;10.50;;;22.40;95.90;;;;;;5036905;28;20086;-33
2022/08/17 07:05:24;;;;;;;14.50;12.90;;;22.40;96.20;;;;;;5046621;28;20060;-34
2022/08/17 07:08:08;;;;;;;12.48;11.35;;;22.30;96.30;;;;;;5047467;28;20447;-34
2022/08/17 07:10:43;;;;;;;10.68;9.68;;;22.30;96.50;;;;;;5046081;28;20035;-33
2022/08/17 07:13:16;;;;;;;11.52;10.52;;;22.30;96.60;;;;;;5045975;28;20124;-34
2022/08/17 07:15:45;;;;;;;11.90;10.70;;;22.30;96.80;;;;;;5042641;28;20033;-35
2022/08/17 07:18:10;;;;;;;12.52;11.43;;;22.20;96.70;;;;;;5042275;28;20923;-34
2022/08/17 07:20:42;;;;;;;11.88;10.68;;;22.20;96.90;;;;;;5044067;28;20159;-34
2022/08/17 07:23:16;;;;;;;14.70;13.30;;;22.20;97.00;;;;;;5035497;28;20032;-33
2022/08/17 07:25:41;;;;;;;14.50;12.85;;;22.20;97.30;;;;;;5045858;28;20060;-32
2022/08/17 07:28:07;;;;;;;16.15;14.57;;;22.30;97.30;;;;;;5047081;28;20552;-33
2022/08/17 07:30:43;;;;;;;17.10;15.40;;;22.20;97.80;;;;;;5046665;28;20032;-34
2022/08/17 07:33:18;;;;;;;16.33;14.73;;;22.20;97.70;;;;;;5043824;28;20029;-35
2022/08/17 07:35:47;;;;;;;16.58;14.93;;;22.30;97.80;;;;;;5046229;28;20464;-34
2022/08/17 07:38:26;;;;;;;13.88;12.57;;;22.30;98.00;;;;;;5046480;28;20024;-34
2022/08/17 07:41:01;;;;;;;17.17;15.38;;;22.30;98.00;;;;;;5045646;28;20039;-35
2022/08/17 07:43:38;;;;;;;14.43;12.98;;;22.30;98.00;;;;;;5043657;28;20017;-35
2022/08/17 07:49:02;;;;;;;14.27;12.98;;;22.30;98.30;;;;;;5046053;28;20063;-35
2022/08/17 07:51:30;;;;;;;15.30;13.90;;;22.30;98.40;;;;;;5045751;28;20037;-35
2022/08/17 07:54:18;;;;;;;15.18;13.43;;;22.40;98.40;;;;;;5045420;28;20075;-35
2022/08/17 07:56:56;;;;;;;15.50;13.98;;;22.50;98.40;;;;;;5045984;28;20376;-35
2022/08/17 07:59:23;;;;;;;15.77;14.00;;;22.60;98.50;;;;;;5035586;28;20028;-35
2022/08/17 08:01:59;;;;;;;13.30;12.07;;;22.60;98.40;;;;;;5042349;28;20033;-35
2022/08/17 08:04:30;;;;;;;15.85;14.40;;;22.70;98.50;;;;;;5045994;28;20057;-35
2022/08/17 08:06:58;;;;;;;15.75;14.15;;;22.70;98.50;;;;;;5045704;28;20029;-34
2022/08/17 08:09:37;;;;;;;17.05;15.45;;;22.70;98.60;;;;;;5046457;28;20550;-35
2022/08/17 08:12:28;;;;;;;14.18;12.77;;;22.70;98.70;;;;;;5046069;28;20037;-34
2022/08/17 08:15:00;;;;;;;14.20;12.90;;;22.70;98.80;;;;;;5034772;28;20472;-35
2022/08/17 08:17:34;;;;;;;14.18;12.82;;;22.80;98.80;;;;;;5046225;28;20052;-35
2022/08/17 08:20:01;;;;;;;14.68;13.27;;;22.80;98.90;;;;;;5035281;28;20366;-35
2022/08/17 08:22:51;;;;;;;19.70;17.60;;;22.80;98.90;;;;;;5044990;28;20082;-35
2022/08/17 08:25:39;;;;;;;15.18;13.68;;;22.80;99.00;;;;;;5025754;28;20041;-34
2022/08/17 08:28:28;;;;;;;15.93;14.32;;;22.70;99.20;;;;;;5036856;28;20469;-34
2022/08/17 08:31:05;;;;;;;17.38;13.60;;;22.70;99.40;;;;;;5045941;28;20108;-34
2022/08/17 08:33:53;;;;;;;16.85;15.15;;;22.70;99.60;;;;;;5046418;28;20116;-34
2022/08/17 08:36:51;;;;;;;16.38;14.77;;;22.70;99.80;;;;;;5046155;28;20037;-35
2022/08/17 08:39:40;;;;;;;13.63;12.23;;;22.70;99.90;;;;;;5045487;28;20082;-35
2022/08/17 08:42:23;;;;;;;16.00;14.40;;;22.80;99.90;;;;;;5024968;28;20025;-34
2022/08/17 08:45:03;;;;;;;15.63;14.05;;;22.90;99.90;;;;;;5042558;28;20059;-34
2022/08/17 08:48:04;;;;;;;14.65;13.18;;;22.90;99.90;;;;;;5045156;28;20037;-33
2022/08/17 08:50:47;;;;;;;16.13;14.63;;;23.00;99.90;;;;;;5043696;28;20036;-33
2022/08/17 08:53:31;;;;;;;17.33;15.50;;;23.10;99.90;;;;;;5042962;28;20029;-34
2022/08/17 08:56:15;;;;;;;14.20;12.93;;;23.20;99.90;;;;;;5034579;28;20033;-34
2022/08/17 08:58:49;;;;;;;14.80;13.43;;;23.30;99.90;;;;;;5044976;28;20826;-35
2022/08/17 09:01:33;;;;;;;14.43;12.90;;;23.30;99.90;;;;;;5045300;28;20126;-34
2022/08/17 09:04:17;;;;;;;15.52;14.05;;;23.30;99.90;;;;;;5044261;28;20056;-34
2022/08/17 09:07:03;;;;;;;17.90;15.95;;;23.30;99.90;;;;;;5035547;28;20549;-35
2022/08/17 09:09:31;;;;;;;17.38;15.68;;;23.30;99.90;;;;;;5032768;28;20037;-34
2022/08/17 09:12:12;;;;;;;13.30;12.10;;;23.20;99.90;;;;;;5043822;28;20082;-34
2022/08/17 09:14:43;;;;;;;15.57;14.10;;;23.20;99.90;;;;;;5044856;28;20032;-34
2022/08/17 09:17:34;;;;;;;17.03;15.33;;;23.10;99.90;;;;;;5044529;28;20035;-34
2022/08/17 09:20:17;;;;;;;15.05;13.60;;;23.00;99.90;;;;;;5028403;28;20063;-34
2022/08/17 09:22:49;;;;;;;15.05;13.65;;;22.90;99.90;;;;;;5044398;28;20031;-34
2022/08/17 09:25:21;;;;;;;15.95;14.40;;;22.70;99.90;;;;;;5041804;28;20494;-34
2022/08/17 09:27:53;;;;;;;17.02;15.27;;;22.70;99.90;;;;;;5042480;28;20025;-34
2022/08/17 09:30:19;;;;;;;16.42;14.80;;;22.70;99.90;;;;;;5042841;28;20021;-34
2022/08/17 09:32:50;;;;;;;14.52;13.13;;;22.70;99.90;;;;;;5041079;28;20389;-35
2022/08/17 09:35:18;;;;;;;15.55;14.02;;;22.70;99.90;;;;;;5044462;28;20040;-35
2022/08/17 09:38:15;;;;;;;14.63;13.23;;;22.80;99.90;;;;;;5044602;28;20638;-34
2022/08/17 09:41:03;;;;;;;14.25;12.82;;;22.80;99.90;;;;;;5044430;28;20364;-35
2022/08/17 09:44:00;;;;;;;17.75;15.95;;;22.90;99.90;;;;;;5045071;28;20446;-35
2022/08/17 09:46:34;;;;;;;14.85;13.48;;;23.00;99.90;;;;;;5044028;28;20055;-34
2022/08/17 09:49:16;;;;;;;12.18;10.98;;;23.10;99.90;;;;;;5044760;28;20110;-34
2022/08/17 09:51:48;;;;;;;16.55;15.05;;;23.30;99.90;;;;;;5043884;28;20424;-34
2022/08/17 09:54:25;;;;;;;13.55;12.13;;;23.40;99.90;;;;;;5044380;28;20021;-35
2022/08/17 09:57:22;;;;;;;15.27;13.77;;;23.40;99.90;;;;;;5044301;28;20029;-34
2022/08/17 10:00:11;;;;;;;16.15;14.55;;;23.60;99.90;;;;;;5023785;28;20104;-35
2022/08/17 10:03:04;;;;;;;14.85;13.52;;;23.60;99.90;;;;;;5042549;28;20025;-35
2022/08/17 10:05:38;;;;;;;16.58;14.95;;;23.60;99.90;;;;;;5048900;28;20048;-35
2022/08/17 10:08:18;;;;;;;13.85;12.52;;;23.70;99.90;;;;;;5044854;28;20385;-35
2022/08/17 10:11:04;;;;;;;15.05;13.55;;;23.70;99.90;;;;;;5048211;28;20040;-35
2022/08/17 10:13:58;;;;;;;13.52;12.32;;;23.70;99.90;;;;;;5047638;28;20045;-34
2022/08/17 10:16:32;;;;;;;12.70;11.60;;;23.80;99.90;;;;;;5048253;28;20040;-35
2022/08/17 10:19:09;;;;;;;14.48;13.18;;;23.90;99.90;;;;;;5037497;28;20029;-35
2022/08/17 10:27:20;;;;;;;13.05;11.80;;;24.10;99.60;;;;;;5048363;28;20094;-34
2022/08/17 10:29:52;;;;;;;12.13;10.93;;;24.20;99.40;;;;;;5047600;28;20490;-35
2022/08/17 10:32:49;;;;;;;10.85;9.88;;;24.20;99.40;;;;;;5048348;28;20033;-35
2022/08/17 10:35:42;;;;;;;12.23;11.13;;;24.30;99.40;;;;;;5045838;28;20033;-34
2022/08/17 10:38:26;;;;;;;11.05;10.05;;;24.30;99.20;;;;;;5048094;28;20033;-34
2022/08/17 10:41:29;;;;;;;11.90;10.80;;;24.40;99.20;;;;;;5047705;28;20059;-34
2022/08/17 10:44:10;;;;;;;;;;;24.40;99.20;;;;;;5051725;28;20037;-36
2022/08/17 10:46:54;;;;;;;12.18;10.95;;;24.40;99.00;;;;;;5048527;28;20006;-35
2022/08/17 10:49:19;;;;;;;10.80;9.80;;;24.40;98.90;;;;;;5047523;28;20029;-35
2022/08/17 10:51:54;;;;;;;10.50;9.60;;;24.40;98.90;;;;;;5047399;28;20102;-36
2022/08/17 10:54:23;;;;;;;11.77;10.68;;;24.40;98.90;;;;;;5047907;28;20526;-37
2022/08/17 10:56:50;;;;;;;13.57;12.30;;;24.30;99.00;;;;;;5047464;28;20033;-34
2022/08/17 10:59:33;;;;;;;16.48;14.80;;;24.30;99.00;;;;;;5047637;28;20017;-34
2022/08/17 11:02:18;;;;;;;15.80;14.30;;;24.30;99.10;;;;;;5028368;28;20060;-36
2022/08/17 11:04:59;;;;;;;13.15;11.85;;;24.30;99.40;;;;;;5044809;28;20488;-35
2022/08/17 11:08:05;;;;;;;13.70;12.30;;;24.30;99.20;;;;;;5042964;28;20025;-35
2022/08/17 11:10:48;;;;;;;13.43;12.23;;;24.30;99.20;;;;;;5023694;28;20112;-34
2022/08/17 11:13:36;;;;;;;13.02;11.75;;;24.40;99.10;;;;;;5043777;28;20081;-34
2022/08/17 11:16:05;;;;;;;13.30;12.00;;;24.50;99.10;;;;;;5037497;28;20017;-33
2022/08/17 11:18:37;;;;;;;11.48;9.82;;;24.50;99.10;;;;;;5046531;28;20025;-36
2022/08/17 11:21:08;;;;;;;;;;;24.60;99.10;;;;;;5043981;28;20068;-33
2022/08/17 11:23:49;;;;;;;11.98;10.90;;;24.60;99.00;;;;;;5046667;28;20395;-34
2022/08/17 11:26:32;;;;;;;13.35;11.95;;;24.60;99.00;;;;;;5048234;28;20028;-35
2022/08/17 11:29:03;;;;;;;;;;;24.50;99.20;;;;;;5047152;28;20020;-34
2022/08/17 11:31:42;;;;;;;15.48;13.98;;;24.40;99.30;;;;;;5046164;28;20470;-34
2022/08/17 11:34:22;;;;;;;15.68;14.05;;;24.30;99.60;;;;;;5046909;28;20033;-34
2022/08/17 11:36:50;;;;;;;15.63;14.13;;;24.20;99.90;;;;;;5044438;28;20033;-34
2022/08/17 11:39:25;;;;;;;14.85;13.43;;;24.00;99.90;;;;;;5046508;28;20111;-33
2022/08/17 11:42:05;;;;;;;16.38;14.77;;;23.90;99.90;;;;;;5046648;28;20116;-35
2022/08/17 11:44:54;;;;;;;17.50;15.70;;;23.80;99.90;;;;;;5046924;28;20029;-35
2022/08/17 11:53:42;;;;;;;13.15;11.95;;;23.40;99.90;;;;;;5016708;28;20164;-35
2022/08/17 11:56:09;;;;;;;16.27;14.57;;;23.30;99.90;;;;;;5043258;28;20455;-35
2022/08/17 11:58:41;;;;;;;16.40;14.60;;;23.30;99.90;;;;;;5026589;28;20041;-35
2022/08/17 12:01:21;;;;;;;17.25;15.52;;;23.20;99.90;;;;;;5041013;28;20085;-35
2022/08/17 12:03:56;;;;;;;20.25;18.33;;;23.20;99.90;;;;;;5026016;28;20069;-35
2022/08/17 12:06:30;;;;;;;17.85;16.05;;;23.10;99.90;;;;;;5040950;28;20024;-34
2022/08/17 12:09:13;;;;;;;17.08;15.48;;;23.10;99.90;;;;;;5026584;28;20029;-34
2022/08/17 12:11:50;;;;;;;14.68;13.18;;;23.10;99.90;;;;;;5042968;28;20056;-35
2022/08/17 12:14:25;;;;;;;14.93;13.60;;;23.20;99.90;;;;;;5025915;28;20130;-34
2022/08/17 12:17:04;;;;;;;13.57;12.27;;;23.20;99.90;;;;;;5042629;28;20025;-34
2022/08/17 12:19:32;;;;;;;14.55;13.35;;;23.20;99.90;;;;;;5045240;28;20505;-34
2022/08/17 12:22:32;;;;;;;18.58;16.88;;;23.20;99.90;;;;;;5044620;28;20056;-34
2022/08/17 12:25:18;;;;;;;15.65;14.10;;;23.00;99.90;;;;;;5043028;28;20029;-34
2022/08/17 12:27:47;;;;;;;18.33;16.55;;;22.80;99.90;;;;;;5043577;28;20460;-33
2022/08/17 12:30:16;;;;;;;14.10;12.82;;;22.60;99.90;;;;;;5046173;28;20021;-35
2022/08/17 12:32:46;;;;;;;15.52;14.10;;;22.60;99.90;;;;;;5045350;28;20044;-35
2022/08/17 12:35:28;;;;;;;15.30;13.82;;;22.60;99.90;;;;;;5045223;28;20075;-35
2022/08/17 12:37:56;;;;;;;13.10;11.90;;;22.50;99.90;;;;;;5045409;28;20044;-35
2022/08/17 12:40:25;;;;;;;16.02;14.43;;;22.50;99.90;;;;;;5045725;28;20333;-35
2022/08/17 12:42:56;;;;;;;16.00;14.50;;;22.40;99.90;;;;;;5044780;28;20029;-35
2022/08/17 12:45:26;;;;;;;17.33;15.73;;;22.40;99.90;;;;;;5045833;28;20052;-35
2022/08/17 12:48:09;;;;;;;19.33;17.40;;;22.50;99.90;;;;;;5045571;28;20037;-35
2022/08/17 12:50:38;;;;;;;15.73;14.27;;;22.50;99.90;;;;;;5026164;28;20142;-34
2022/08/17 12:53:16;;;;;;;16.08;14.50;;;22.60;99.90;;;;;;5042087;28;20032;-33
2022/08/17 12:55:43;;;;;;;13.75;12.55;;;22.70;99.90;;;;;;5044561;28;20167;-35
2022/08/17 12:58:18;;;;;;;15.13;13.55;;;22.80;99.90;;;;;;5045218;28;20299;-34
2022/08/17 13:00:48;;;;;;;17.15;15.48;;;22.90;99.90;;;;;;5025718;28;20076;-34
2022/08/17 13:03:22;;;;;;;15.68;14.23;;;23.00;99.90;;;;;;5039615;28;20076;-34
2022/08/17 13:05:51;;;;;;;16.83;15.20;;;23.00;99.90;;;;;;5044734;28;20064;-36
2022/08/17 13:08:19;;;;;;;15.48;13.82;;;23.10;99.90;;;;;;5045029;28;20041;-34
2022/08/17 13:10:57;;;;;;;16.02;14.63;;;23.10;99.90;;;;;;5043942;28;20029;-35
2022/08/17 13:13:26;;;;;;;14.60;13.30;;;23.10;99.90;;;;;;5044882;28;20119;-34
2022/08/17 13:15:56;;;;;;;16.58;15.07;;;23.10;99.90;;;;;;5045086;28;20473;-35
2022/08/17 13:18:45;;;;;;;16.02;14.45;;;23.00;99.90;;;;;;5043771;28;20044;-35
2022/08/17 13:21:25;;;;;;;16.52;14.95;;;22.90;99.90;;;;;;5045069;28;20446;-34
2022/08/17 13:24:12;;;;;;;18.63;16.83;;;23.00;99.90;;;;;;5044060;28;20039;-34
2022/08/17 13:26:44;;;;;;;12.93;11.70;;;23.00;99.90;;;;;;5045306;28;20033;-34
2022/08/17 13:29:16;;;;;;;17.50;15.90;;;23.00;99.90;;;;;;5045268;28;20405;-35
2022/08/17 13:31:42;;;;;;;15.57;14.00;;;22.90;99.90;;;;;;5044203;28;20041;-35
2022/08/17 13:34:22;;;;;;;16.55;15.05;;;22.90;99.90;;;;;;5045108;28;20060;-35